sensor_id;sensor_type;location;lat;lon;timestamp;temperature;humidity
19164;DHT22;9714;51.208;4.242;2022-11-11T00:01:11;12.20;99.90
19164;DHT22;9714;51.208;4.242;2022-11-11T00:03:38;12.20;99.90
19164;DHT22;9714;51.208;4.242;2022-11-11T00:06:08;12.10;99.90
19164;DHT22;9714;51.208;4.242;2022-11-11T00:08:36;12.00;99.90
19164;DHT22;9714;51.208;4.242;2022-11-11T00:11:07;12.00;99.90
19164;DHT22;9714;51.208;4.242;2022-11-11T00:13:36;12.10;99.90
19164;DHT22;9714;51.208;4.242;2022-11-11T00:16:06;12.10;99.90
19164;DHT22;9714;51.208;4.242;2022-11-11T00:18:33;12.10;99.90
19164;DHT22;9714;51.208;4.242;2022-11-11T00:21:18;12.10;99.90
19164;DHT22;9714;51.208;4.242;2022-11-11T00:24:19;12.10;99.90
19164;DHT22;9714;51.208;4.242;2022-11-11T00:27:04;12.10;99.90
19164;DHT22;9714;51.208;4.242;2022-11-11T00:29:33;12.10;99.90
19164;DHT22;9714;51.208;4.242;2022-11-11T00:32:00;11.90;99.90
19164;DHT22;9714;51.208;4.242;2022-11-11T00:34:44;11.90;99.90
19164;DHT22;9714;51.208;4.242;2022-11-11T00:37:31;11.90;99.90
19164;DHT22;9714;51.208;4.242;2022-11-11T00:39:58;12.00;99.90
19164;DHT22;9714;51.208;4.242;2022-11-11T00:42:25;11.90;99.90
19164;DHT22;9714;51.208;4.242;2022-11-11T00:44:53;11.80;99.90
19164;DHT22;9714;51.208;4.242;2022-11-11T00:47:20;11.90;99.90
19164;DHT22;9714;51.208;4.242;2022-11-11T00:50:08;12.00;99.90
19164;DHT22;9714;51.208;4.242;2022-11-11T00:52:54;12.00;99.90
19164;DHT22;9714;51.208;4.242;2022-11-11T00:55:21;11.80;99.90
19164;DHT22;9714;51.208;4.242;2022-11-11T00:57:48;11.90;99.90
19164;DHT22;9714;51.208;4.242;2022-11-11T01:00:17;11.90;99.90
19164;DHT22;9714;51.208;4.242;2022-11-11T01:02:44;11.90;99.90
19164;DHT22;9714;51.208;4.242;2022-11-11T01:05:11;11.80;99.90
19164;DHT22;9714;51.208;4.242;2022-11-11T01:07:38;11.90;99.90
19164;DHT22;9714;51.208;4.242;2022-11-11T01:10:06;12.00;99.90
19164;DHT22;9714;51.208;4.242;2022-11-11T01:12:33;11.80;99.90
19164;DHT22;9714;51.208;4.242;2022-11-11T01:15:00;12.00;99.90
19164;DHT22;9714;51.208;4.242;2022-11-11T01:17:29;12.00;99.90
19164;DHT22;9714;51.208;4.242;2022-11-11T01:19:56;11.90;99.90
19164;DHT22;9714;51.208;4.242;2022-11-11T01:22:23;12.00;99.90
19164;DHT22;9714;51.208;4.242;2022-11-11T01:24:50;12.00;99.90
19164;DHT22;9714;51.208;4.242;2022-11-11T01:27:16;12.00;99.90
19164;DHT22;9714;51.208;4.242;2022-11-11T01:29:44;12.00;99.90
19164;DHT22;9714;51.208;4.242;2022-11-11T01:32:11;11.80;99.90
19164;DHT22;9714;51.208;4.242;2022-11-11T01:34:40;11.80;99.90
19164;DHT22;9714;51.208;4.242;2022-11-11T01:37:07;11.90;99.90
19164;DHT22;9714;51.208;4.242;2022-11-11T01:39:34;11.80;99.90
19164;DHT22;9714;51.208;4.242;2022-11-11T01:42:00;11.80;99.90
19164;DHT22;9714;51.208;4.242;2022-11-11T01:44:41;11.80;99.90
19164;DHT22;9714;51.208;4.242;2022-11-11T01:47:09;11.90;99.90
19164;DHT22;9714;51.208;4.242;2022-11-11T01:49:43;11.90;99.90
19164;DHT22;9714;51.208;4.242;2022-11-11T01:52:17;12.00;99.90
19164;DHT22;9714;51.208;4.242;2022-11-11T01:54:48;12.00;99.90
19164;DHT22;9714;51.208;4.242;2022-11-11T01:57:21;11.80;99.90
19164;DHT22;9714;51.208;4.242;2022-11-11T01:59:54;11.80;99.90
19164;DHT22;9714;51.208;4.242;2022-11-11T02:02:28;11.90;99.90
19164;DHT22;9714;51.208;4.242;2022-11-11T02:05:00;11.80;99.90
19164;DHT22;9714;51.208;4.242;2022-11-11T02:07:47;11.80;99.90
19164;DHT22;9714;51.208;4.242;2022-11-11T02:10:16;11.80;99.90
19164;DHT22;9714;51.208;4.242;2022-11-11T02:12:43;11.90;99.90
19164;DHT22;9714;51.208;4.242;2022-11-11T02:15:27;11.80;99.90
19164;DHT22;9714;51.208;4.242;2022-11-11T02:17:54;11.90;99.90
19164;DHT22;9714;51.208;4.242;2022-11-11T02:20:25;12.00;99.90
19164;DHT22;9714;51.208;4.242;2022-11-11T02:22:56;11.80;99.90
19164;DHT22;9714;51.208;4.242;2022-11-11T02:25:30;11.80;99.90
19164;DHT22;9714;51.208;4.242;2022-11-11T02:28:00;11.80;99.90
19164;DHT22;9714;51.208;4.242;2022-11-11T02:30:29;11.90;99.90
19164;DHT22;9714;51.208;4.242;2022-11-11T02:32:56;11.90;99.90
19164;DHT22;9714;51.208;4.242;2022-11-11T02:35:29;11.90;99.90
19164;DHT22;9714;51.208;4.242;2022-11-11T02:37:56;11.80;99.90
19164;DHT22;9714;51.208;4.242;2022-11-11T02:40:28;11.90;99.90
19164;DHT22;9714;51.208;4.242;2022-11-11T02:42:56;11.90;99.90
19164;DHT22;9714;51.208;4.242;2022-11-11T02:45:24;11.80;99.90
19164;DHT22;9714;51.208;4.242;2022-11-11T02:47:52;11.80;99.90
19164;DHT22;9714;51.208;4.242;2022-11-11T02:50:18;11.80;99.90
19164;DHT22;9714;51.208;4.242;2022-11-11T02:52:45;11.80;99.90
19164;DHT22;9714;51.208;4.242;2022-11-11T02:55:12;11.80;99.90
19164;DHT22;9714;51.208;4.242;2022-11-11T02:57:42;11.80;99.90
19164;DHT22;9714;51.208;4.242;2022-11-11T03:00:10;12.00;99.90
19164;DHT22;9714;51.208;4.242;2022-11-11T03:02:37;12.10;99.90
19164;DHT22;9714;51.208;4.242;2022-11-11T03:05:05;11.90;99.90
19164;DHT22;9714;51.208;4.242;2022-11-11T03:07:32;12.00;99.90
19164;DHT22;9714;51.208;4.242;2022-11-11T03:09:59;11.90;99.90
19164;DHT22;9714;51.208;4.242;2022-11-11T03:12:26;11.80;99.90
19164;DHT22;9714;51.208;4.242;2022-11-11T03:14:57;11.90;99.90
19164;DHT22;9714;51.208;4.242;2022-11-11T03:17:24;11.90;99.90
19164;DHT22;9714;51.208;4.242;2022-11-11T03:20:06;12.10;99.90
19164;DHT22;9714;51.208;4.242;2022-11-11T03:23:01;11.90;99.90
19164;DHT22;9714;51.208;4.242;2022-11-11T03:25:28;12.00;99.90
19164;DHT22;9714;51.208;4.242;2022-11-11T03:28:06;12.00;99.90
19164;DHT22;9714;51.208;4.242;2022-11-11T03:30:36;12.10;99.90
19164;DHT22;9714;51.208;4.242;2022-11-11T03:33:03;11.90;99.90
19164;DHT22;9714;51.208;4.242;2022-11-11T03:35:30;11.80;99.90
19164;DHT22;9714;51.208;4.242;2022-11-11T03:37:57;11.80;99.90
19164;DHT22;9714;51.208;4.242;2022-11-11T03:40:50;11.80;99.90
19164;DHT22;9714;51.208;4.242;2022-11-11T03:43:19;11.50;99.90
19164;DHT22;9714;51.208;4.242;2022-11-11T03:45:47;11.60;99.90
19164;DHT22;9714;51.208;4.242;2022-11-11T03:48:15;11.50;99.90
19164;DHT22;9714;51.208;4.242;2022-11-11T03:50:42;11.50;99.90
19164;DHT22;9714;51.208;4.242;2022-11-11T03:53:09;11.40;99.90
19164;DHT22;9714;51.208;4.242;2022-11-11T03:55:36;11.60;99.90
19164;DHT22;9714;51.208;4.242;2022-11-11T03:58:03;11.80;99.90
19164;DHT22;9714;51.208;4.242;2022-11-11T04:00:31;11.80;99.90
19164;DHT22;9714;51.208;4.242;2022-11-11T04:03:04;11.60;99.90
19164;DHT22;9714;51.208;4.242;2022-11-11T04:05:49;11.70;99.90
19164;DHT22;9714;51.208;4.242;2022-11-11T04:08:34;11.60;99.90
19164;DHT22;9714;51.208;4.242;2022-11-11T04:11:22;11.60;99.90
19164;DHT22;9714;51.208;4.242;2022-11-11T04:13:50;11.50;99.90
19164;DHT22;9714;51.208;4.242;2022-11-11T04:16:35;11.50;99.90
19164;DHT22;9714;51.208;4.242;2022-11-11T04:19:04;11.60;99.90
19164;DHT22;9714;51.208;4.242;2022-11-11T04:21:48;11.70;99.90
19164;DHT22;9714;51.208;4.242;2022-11-11T04:24:19;11.60;99.90
19164;DHT22;9714;51.208;4.242;2022-11-11T04:27:05;11.40;99.90
19164;DHT22;9714;51.208;4.242;2022-11-11T04:29:32;11.20;99.90
19164;DHT22;9714;51.208;4.242;2022-11-11T04:31:59;11.20;99.90
19164;DHT22;9714;51.208;4.242;2022-11-11T04:34:47;11.20;99.90
19164;DHT22;9714;51.208;4.242;2022-11-11T04:37:15;11.50;99.90
19164;DHT22;9714;51.208;4.242;2022-11-11T04:39:42;11.50;99.90
19164;DHT22;9714;51.208;4.242;2022-11-11T04:42:27;11.30;99.90
19164;DHT22;9714;51.208;4.242;2022-11-11T04:44:55;11.20;99.90
19164;DHT22;9714;51.208;4.242;2022-11-11T04:47:52;11.10;99.90
19164;DHT22;9714;51.208;4.242;2022-11-11T04:50:20;11.10;99.90
19164;DHT22;9714;51.208;4.242;2022-11-11T04:52:47;11.40;99.90
19164;DHT22;9714;51.208;4.242;2022-11-11T04:55:15;11.40;99.90
19164;DHT22;9714;51.208;4.242;2022-11-11T04:58:00;11.30;99.90
19164;DHT22;9714;51.208;4.242;2022-11-11T05:00:29;11.20;99.90
19164;DHT22;9714;51.208;4.242;2022-11-11T05:02:57;11.20;99.90
19164;DHT22;9714;51.208;4.242;2022-11-11T05:05:46;11.10;99.90
19164;DHT22;9714;51.208;4.242;2022-11-11T05:08:31;11.20;99.90
19164;DHT22;9714;51.208;4.242;2022-11-11T05:11:16;11.10;99.90
19164;DHT22;9714;51.208;4.242;2022-11-11T05:13:43;11.20;99.90
19164;DHT22;9714;51.208;4.242;2022-11-11T05:16:29;11.20;99.90
19164;DHT22;9714;51.208;4.242;2022-11-11T05:19:15;11.00;99.90
19164;DHT22;9714;51.208;4.242;2022-11-11T05:22:07;11.10;99.90
19164;DHT22;9714;51.208;4.242;2022-11-11T05:24:36;11.00;99.90
19164;DHT22;9714;51.208;4.242;2022-11-11T05:27:21;11.00;99.90
19164;DHT22;9714;51.208;4.242;2022-11-11T05:29:48;11.00;99.90
19164;DHT22;9714;51.208;4.242;2022-11-11T05:32:20;10.90;99.90
19164;DHT22;9714;51.208;4.242;2022-11-11T05:34:49;11.10;99.90
19164;DHT22;9714;51.208;4.242;2022-11-11T05:37:23;11.10;99.90
19164;DHT22;9714;51.208;4.242;2022-11-11T05:39:50;11.20;99.90
19164;DHT22;9714;51.208;4.242;2022-11-11T05:42:17;11.40;99.90
19164;DHT22;9714;51.208;4.242;2022-11-11T05:44:44;11.20;99.90
19164;DHT22;9714;51.208;4.242;2022-11-11T05:47:11;11.30;99.90
19164;DHT22;9714;51.208;4.242;2022-11-11T05:49:40;11.20;99.90
19164;DHT22;9714;51.208;4.242;2022-11-11T05:52:09;11.30;99.90
19164;DHT22;9714;51.208;4.242;2022-11-11T05:54:38;11.30;99.90
19164;DHT22;9714;51.208;4.242;2022-11-11T05:57:05;11.10;99.90
19164;DHT22;9714;51.208;4.242;2022-11-11T05:59:32;11.10;99.90
19164;DHT22;9714;51.208;4.242;2022-11-11T06:01:59;11.20;99.90
19164;DHT22;9714;51.208;4.242;2022-11-11T06:04:26;11.20;99.90
19164;DHT22;9714;51.208;4.242;2022-11-11T06:06:59;11.30;99.90
19164;DHT22;9714;51.208;4.242;2022-11-11T06:09:26;11.30;99.90
19164;DHT22;9714;51.208;4.242;2022-11-11T06:11:54;11.20;99.90
19164;DHT22;9714;51.208;4.242;2022-11-11T06:14:22;11.10;99.90
19164;DHT22;9714;51.208;4.242;2022-11-11T06:16:49;11.30;99.90
19164;DHT22;9714;51.208;4.242;2022-11-11T06:19:17;11.20;99.90
19164;DHT22;9714;51.208;4.242;2022-11-11T06:21:45;11.20;99.90
19164;DHT22;9714;51.208;4.242;2022-11-11T06:24:25;11.30;99.90
19164;DHT22;9714;51.208;4.242;2022-11-11T06:26:55;11.20;99.90
19164;DHT22;9714;51.208;4.242;2022-11-11T06:29:22;11.00;99.90
19164;DHT22;9714;51.208;4.242;2022-11-11T06:31:50;11.20;99.90
19164;DHT22;9714;51.208;4.242;2022-11-11T06:34:18;11.30;99.90
19164;DHT22;9714;51.208;4.242;2022-11-11T06:36:46;11.00;99.90
19164;DHT22;9714;51.208;4.242;2022-11-11T06:39:13;11.20;99.90
19164;DHT22;9714;51.208;4.242;2022-11-11T06:41:40;11.30;99.90
19164;DHT22;9714;51.208;4.242;2022-11-11T06:44:10;11.20;99.90
19164;DHT22;9714;51.208;4.242;2022-11-11T06:46:37;11.00;99.90
19164;DHT22;9714;51.208;4.242;2022-11-11T06:49:04;11.20;99.90
19164;DHT22;9714;51.208;4.242;2022-11-11T06:51:31;11.20;99.90
19164;DHT22;9714;51.208;4.242;2022-11-11T06:53:58;11.20;99.90
19164;DHT22;9714;51.208;4.242;2022-11-11T06:56:25;11.00;99.90
19164;DHT22;9714;51.208;4.242;2022-11-11T06:58:52;11.10;99.90
19164;DHT22;9714;51.208;4.242;2022-11-11T07:01:20;11.20;99.90
19164;DHT22;9714;51.208;4.242;2022-11-11T07:03:47;11.10;99.90
19164;DHT22;9714;51.208;4.242;2022-11-11T07:06:15;10.90;99.90
19164;DHT22;9714;51.208;4.242;2022-11-11T07:08:42;11.00;99.90
19164;DHT22;9714;51.208;4.242;2022-11-11T07:11:09;10.90;99.90
19164;DHT22;9714;51.208;4.242;2022-11-11T07:13:36;10.80;99.90
19164;DHT22;9714;51.208;4.242;2022-11-11T07:16:04;10.90;99.90
19164;DHT22;9714;51.208;4.242;2022-11-11T07:18:32;10.90;99.90
19164;DHT22;9714;51.208;4.242;2022-11-11T07:20:59;11.00;99.90
19164;DHT22;9714;51.208;4.242;2022-11-11T07:23:28;10.90;99.90
19164;DHT22;9714;51.208;4.242;2022-11-11T07:25:55;10.90;99.90
19164;DHT22;9714;51.208;4.242;2022-11-11T07:28:23;11.00;99.90
19164;DHT22;9714;51.208;4.242;2022-11-11T07:30:50;11.00;99.90
19164;DHT22;9714;51.208;4.242;2022-11-11T07:33:17;10.90;99.90
19164;DHT22;9714;51.208;4.242;2022-11-11T07:35:45;10.70;99.90
19164;DHT22;9714;51.208;4.242;2022-11-11T07:38:15;10.80;99.90
19164;DHT22;9714;51.208;4.242;2022-11-11T07:40:42;10.90;99.90
19164;DHT22;9714;51.208;4.242;2022-11-11T07:43:09;10.90;99.90
19164;DHT22;9714;51.208;4.242;2022-11-11T07:45:39;10.90;99.90
19164;DHT22;9714;51.208;4.242;2022-11-11T07:48:06;10.80;99.90
19164;DHT22;9714;51.208;4.242;2022-11-11T07:50:33;10.80;99.90
19164;DHT22;9714;51.208;4.242;2022-11-11T07:53:01;10.80;99.90
19164;DHT22;9714;51.208;4.242;2022-11-11T07:55:29;10.70;99.90
19164;DHT22;9714;51.208;4.242;2022-11-11T07:57:57;10.70;99.90
19164;DHT22;9714;51.208;4.242;2022-11-11T08:00:26;10.40;99.90
19164;DHT22;9714;51.208;4.242;2022-11-11T08:02:53;10.40;99.90
19164;DHT22;9714;51.208;4.242;2022-11-11T08:05:20;10.70;99.90
19164;DHT22;9714;51.208;4.242;2022-11-11T08:07:50;10.70;99.90
19164;DHT22;9714;51.208;4.242;2022-11-11T08:10:20;10.60;99.90
19164;DHT22;9714;51.208;4.242;2022-11-11T08:12:52;10.40;99.90
19164;DHT22;9714;51.208;4.242;2022-11-11T08:15:40;10.60;99.90
19164;DHT22;9714;51.208;4.242;2022-11-11T08:18:08;10.50;99.90
19164;DHT22;9714;51.208;4.242;2022-11-11T08:20:35;10.60;99.90
19164;DHT22;9714;51.208;4.242;2022-11-11T08:23:02;10.60;99.90
19164;DHT22;9714;51.208;4.242;2022-11-11T08:25:49;10.80;99.90
19164;DHT22;9714;51.208;4.242;2022-11-11T08:28:22;10.90;99.90
19164;DHT22;9714;51.208;4.242;2022-11-11T08:30:59;10.90;99.90
19164;DHT22;9714;51.208;4.242;2022-11-11T08:33:27;10.70;99.90
19164;DHT22;9714;51.208;4.242;2022-11-11T08:35:58;10.80;99.90
19164;DHT22;9714;51.208;4.242;2022-11-11T08:38:36;10.80;99.90
19164;DHT22;9714;51.208;4.242;2022-11-11T08:41:17;10.80;99.90
19164;DHT22;9714;51.208;4.242;2022-11-11T08:44:04;11.00;99.90
19164;DHT22;9714;51.208;4.242;2022-11-11T08:46:31;11.10;99.90
19164;DHT22;9714;51.208;4.242;2022-11-11T08:49:00;10.90;99.90
19164;DHT22;9714;51.208;4.242;2022-11-11T08:51:28;10.80;99.90
19164;DHT22;9714;51.208;4.242;2022-11-11T08:53:57;10.70;99.90
19164;DHT22;9714;51.208;4.242;2022-11-11T08:56:27;10.90;99.90
19164;DHT22;9714;51.208;4.242;2022-11-11T08:58:56;11.00;99.90
19164;DHT22;9714;51.208;4.242;2022-11-11T09:01:25;11.00;99.90
19164;DHT22;9714;51.208;4.242;2022-11-11T09:03:56;11.00;99.90
19164;DHT22;9714;51.208;4.242;2022-11-11T09:06:25;11.20;99.90
19164;DHT22;9714;51.208;4.242;2022-11-11T09:08:52;11.30;99.90
19164;DHT22;9714;51.208;4.242;2022-11-11T09:11:19;11.40;99.90
19164;DHT22;9714;51.208;4.242;2022-11-11T09:13:49;11.40;99.90
19164;DHT22;9714;51.208;4.242;2022-11-11T09:16:16;11.30;99.90
19164;DHT22;9714;51.208;4.242;2022-11-11T09:18:43;11.30;99.90
19164;DHT22;9714;51.208;4.242;2022-11-11T09:21:11;11.50;99.90
19164;DHT22;9714;51.208;4.242;2022-11-11T09:23:38;11.60;99.90
19164;DHT22;9714;51.208;4.242;2022-11-11T09:26:05;11.80;99.90
19164;DHT22;9714;51.208;4.242;2022-11-11T09:28:32;11.90;99.90
19164;DHT22;9714;51.208;4.242;2022-11-11T09:31:02;11.90;99.90
19164;DHT22;9714;51.208;4.242;2022-11-11T09:33:29;12.00;99.90
19164;DHT22;9714;51.208;4.242;2022-11-11T09:35:58;11.80;99.90
19164;DHT22;9714;51.208;4.242;2022-11-11T09:38:30;11.70;99.90
19164;DHT22;9714;51.208;4.242;2022-11-11T09:41:13;12.00;99.90
19164;DHT22;9714;51.208;4.242;2022-11-11T09:43:47;12.10;99.90
19164;DHT22;9714;51.208;4.242;2022-11-11T09:46:32;12.50;99.90
19164;DHT22;9714;51.208;4.242;2022-11-11T09:52:10;13.40;99.90
19164;DHT22;9714;51.208;4.242;2022-11-11T09:54:41;13.90;99.90
19164;DHT22;9714;51.208;4.242;2022-11-11T09:57:21;14.40;99.90
19164;DHT22;9714;51.208;4.242;2022-11-11T09:59:51;15.00;99.90
19164;DHT22;9714;51.208;4.242;2022-11-11T10:02:29;16.00;99.90
19164;DHT22;9714;51.208;4.242;2022-11-11T10:05:06;16.90;99.90
19164;DHT22;9714;51.208;4.242;2022-11-11T10:07:37;17.50;99.90
19164;DHT22;9714;51.208;4.242;2022-11-11T10:10:14;18.10;99.90
19164;DHT22;9714;51.208;4.242;2022-11-11T10:12:48;17.60;99.90
19164;DHT22;9714;51.208;4.242;2022-11-11T10:15:16;17.70;99.90
19164;DHT22;9714;51.208;4.242;2022-11-11T10:18:04;18.00;99.90
19164;DHT22;9714;51.208;4.242;2022-11-11T10:20:40;18.00;99.90
19164;DHT22;9714;51.208;4.242;2022-11-11T10:23:13;18.20;99.90
19164;DHT22;9714;51.208;4.242;2022-11-11T10:25:45;17.60;99.90
19164;DHT22;9714;51.208;4.242;2022-11-11T10:28:19;17.90;99.90
19164;DHT22;9714;51.208;4.242;2022-11-11T10:30:49;18.30;99.90
19164;DHT22;9714;51.208;4.242;2022-11-11T10:33:22;19.20;99.90
19164;DHT22;9714;51.208;4.242;2022-11-11T10:35:52;18.50;99.90
19164;DHT22;9714;51.208;4.242;2022-11-11T10:38:32;18.90;99.90
19164;DHT22;9714;51.208;4.242;2022-11-11T10:41:09;19.50;99.90
19164;DHT22;9714;51.208;4.242;2022-11-11T10:43:37;19.30;99.90
19164;DHT22;9714;51.208;4.242;2022-11-11T10:46:08;19.10;99.90
19164;DHT22;9714;51.208;4.242;2022-11-11T10:48:48;19.30;99.90
19164;DHT22;9714;51.208;4.242;2022-11-11T10:51:18;19.00;99.90
19164;DHT22;9714;51.208;4.242;2022-11-11T10:53:52;19.10;99.90
19164;DHT22;9714;51.208;4.242;2022-11-11T10:56:25;19.00;99.90
19164;DHT22;9714;51.208;4.242;2022-11-11T10:58:57;19.60;99.90
19164;DHT22;9714;51.208;4.242;2022-11-11T11:01:32;19.60;99.90
19164;DHT22;9714;51.208;4.242;2022-11-11T11:04:05;19.60;99.90
19164;DHT22;9714;51.208;4.242;2022-11-11T11:06:38;18.70;99.90
19164;DHT22;9714;51.208;4.242;2022-11-11T11:09:13;18.70;99.90
19164;DHT22;9714;51.208;4.242;2022-11-11T11:11:47;19.90;99.90
19164;DHT22;9714;51.208;4.242;2022-11-11T11:14:20;20.30;99.90
19164;DHT22;9714;51.208;4.242;2022-11-11T11:16:51;21.10;99.90
19164;DHT22;9714;51.208;4.242;2022-11-11T11:19:23;21.70;99.90
19164;DHT22;9714;51.208;4.242;2022-11-11T11:21:53;22.40;99.90
19164;DHT22;9714;51.208;4.242;2022-11-11T11:24:23;21.90;99.90
19164;DHT22;9714;51.208;4.242;2022-11-11T11:26:52;21.60;99.90
19164;DHT22;9714;51.208;4.242;2022-11-11T11:29:27;21.50;99.90
19164;DHT22;9714;51.208;4.242;2022-11-11T11:31:55;21.20;99.90
19164;DHT22;9714;51.208;4.242;2022-11-11T11:34:45;20.90;99.90
19164;DHT22;9714;51.208;4.242;2022-11-11T11:37:14;20.80;99.90
19164;DHT22;9714;51.208;4.242;2022-11-11T11:39:41;21.00;99.90
19164;DHT22;9714;51.208;4.242;2022-11-11T11:42:26;21.80;99.90
19164;DHT22;9714;51.208;4.242;2022-11-11T11:44:54;21.50;99.90
19164;DHT22;9714;51.208;4.242;2022-11-11T11:47:40;20.60;99.90
19164;DHT22;9714;51.208;4.242;2022-11-11T11:50:24;20.90;99.90
19164;DHT22;9714;51.208;4.242;2022-11-11T11:53:06;21.10;99.90
19164;DHT22;9714;51.208;4.242;2022-11-11T11:55:39;21.60;99.90
19164;DHT22;9714;51.208;4.242;2022-11-11T11:58:23;21.50;99.90
19164;DHT22;9714;51.208;4.242;2022-11-11T12:01:02;20.80;99.90
19164;DHT22;9714;51.208;4.242;2022-11-11T12:06:52;20.10;99.90
19164;DHT22;9714;51.208;4.242;2022-11-11T12:09:35;20.50;99.90
19164;DHT22;9714;51.208;4.242;2022-11-11T12:12:08;21.20;99.90
19164;DHT22;9714;51.208;4.242;2022-11-11T12:14:57;21.50;99.90
19164;DHT22;9714;51.208;4.242;2022-11-11T12:17:30;21.40;99.90
19164;DHT22;9714;51.208;4.242;2022-11-11T12:20:07;21.30;99.90
19164;DHT22;9714;51.208;4.242;2022-11-11T12:22:49;21.50;99.90
19164;DHT22;9714;51.208;4.242;2022-11-11T12:25:21;21.20;99.90
19164;DHT22;9714;51.208;4.242;2022-11-11T12:27:56;21.00;99.90
19164;DHT22;9714;51.208;4.242;2022-11-11T12:30:29;20.70;99.90
19164;DHT22;9714;51.208;4.242;2022-11-11T12:33:30;20.00;99.90
19164;DHT22;9714;51.208;4.242;2022-11-11T12:36:06;20.00;99.90
19164;DHT22;9714;51.208;4.242;2022-11-11T12:38:49;19.80;99.90
19164;DHT22;9714;51.208;4.242;2022-11-11T12:41:29;19.10;99.90
19164;DHT22;9714;51.208;4.242;2022-11-11T12:44:03;19.40;99.90
19164;DHT22;9714;51.208;4.242;2022-11-11T12:46:41;19.20;99.90
19164;DHT22;9714;51.208;4.242;2022-11-11T12:49:28;19.00;99.90
19164;DHT22;9714;51.208;4.242;2022-11-11T12:52:05;18.80;99.90
19164;DHT22;9714;51.208;4.242;2022-11-11T12:54:50;18.50;99.90
19164;DHT22;9714;51.208;4.242;2022-11-11T12:57:25;18.50;99.90
19164;DHT22;9714;51.208;4.242;2022-11-11T13:00:02;18.50;99.90
19164;DHT22;9714;51.208;4.242;2022-11-11T13:02:48;18.60;99.90
19164;DHT22;9714;51.208;4.242;2022-11-11T13:05:19;18.70;99.90
19164;DHT22;9714;51.208;4.242;2022-11-11T13:10:52;20.40;99.90
19164;DHT22;9714;51.208;4.242;2022-11-11T13:13:40;20.70;99.90
19164;DHT22;9714;51.208;4.242;2022-11-11T13:16:10;20.70;99.90
19164;DHT22;9714;51.208;4.242;2022-11-11T13:18:48;20.00;99.90
19164;DHT22;9714;51.208;4.242;2022-11-11T13:21:20;20.30;99.90
19164;DHT22;9714;51.208;4.242;2022-11-11T13:23:48;20.00;99.90
19164;DHT22;9714;51.208;4.242;2022-11-11T13:26:27;19.60;99.90
19164;DHT22;9714;51.208;4.242;2022-11-11T13:29:17;19.40;99.90
19164;DHT22;9714;51.208;4.242;2022-11-11T13:31:52;19.40;99.90
19164;DHT22;9714;51.208;4.242;2022-11-11T13:34:20;19.70;99.90
19164;DHT22;9714;51.208;4.242;2022-11-11T13:36:50;19.90;99.90
19164;DHT22;9714;51.208;4.242;2022-11-11T13:39:24;19.80;99.90
19164;DHT22;9714;51.208;4.242;2022-11-11T13:41:55;20.20;99.90
19164;DHT22;9714;51.208;4.242;2022-11-11T13:44:26;20.10;99.90
19164;DHT22;9714;51.208;4.242;2022-11-11T13:47:01;20.50;99.90
19164;DHT22;9714;51.208;4.242;2022-11-11T13:49:33;20.60;99.90
19164;DHT22;9714;51.208;4.242;2022-11-11T13:52:03;20.60;99.90
19164;DHT22;9714;51.208;4.242;2022-11-11T13:54:33;20.30;99.90
19164;DHT22;9714;51.208;4.242;2022-11-11T13:57:05;19.60;99.90
19164;DHT22;9714;51.208;4.242;2022-11-11T13:59:37;19.40;99.90
19164;DHT22;9714;51.208;4.242;2022-11-11T14:02:26;19.00;99.90
19164;DHT22;9714;51.208;4.242;2022-11-11T14:05:15;19.30;99.90
19164;DHT22;9714;51.208;4.242;2022-11-11T14:07:48;19.10;99.90
19164;DHT22;9714;51.208;4.242;2022-11-11T14:13:40;18.30;99.90
19164;DHT22;9714;51.208;4.242;2022-11-11T14:16:11;18.10;99.90
19164;DHT22;9714;51.208;4.242;2022-11-11T14:18:44;17.70;99.90
19164;DHT22;9714;51.208;4.242;2022-11-11T14:21:43;17.60;99.90
19164;DHT22;9714;51.208;4.242;2022-11-11T14:24:22;17.40;99.90
19164;DHT22;9714;51.208;4.242;2022-11-11T14:26:57;17.50;99.90
19164;DHT22;9714;51.208;4.242;2022-11-11T14:29:29;17.00;99.90
19164;DHT22;9714;51.208;4.242;2022-11-11T14:32:24;17.10;99.90
19164;DHT22;9714;51.208;4.242;2022-11-11T14:35:20;16.90;99.90
19164;DHT22;9714;51.208;4.242;2022-11-11T14:38:13;16.70;99.90
19164;DHT22;9714;51.208;4.242;2022-11-11T14:40:41;16.50;99.90
19164;DHT22;9714;51.208;4.242;2022-11-11T14:43:37;16.50;99.90
19164;DHT22;9714;51.208;4.242;2022-11-11T14:46:07;16.40;99.90
19164;DHT22;9714;51.208;4.242;2022-11-11T14:48:55;16.30;99.90
19164;DHT22;9714;51.208;4.242;2022-11-11T14:51:49;16.10;99.90
19164;DHT22;9714;51.208;4.242;2022-11-11T14:54:51;15.80;99.90
19164;DHT22;9714;51.208;4.242;2022-11-11T14:57:23;15.80;99.90
19164;DHT22;9714;51.208;4.242;2022-11-11T14:59:50;15.70;99.90
19164;DHT22;9714;51.208;4.242;2022-11-11T15:02:26;15.50;99.90
19164;DHT22;9714;51.208;4.242;2022-11-11T15:04:57;15.50;99.90
19164;DHT22;9714;51.208;4.242;2022-11-11T15:13:51;15.60;99.90
19164;DHT22;9714;51.208;4.242;2022-11-11T15:16:48;15.40;99.90
19164;DHT22;9714;51.208;4.242;2022-11-11T15:19:32;15.40;99.90
19164;DHT22;9714;51.208;4.242;2022-11-11T15:22:08;15.40;99.90
19164;DHT22;9714;51.208;4.242;2022-11-11T15:24:44;15.20;99.90
19164;DHT22;9714;51.208;4.242;2022-11-11T15:27:25;15.20;99.90
19164;DHT22;9714;51.208;4.242;2022-11-11T15:30:04;15.10;99.90
19164;DHT22;9714;51.208;4.242;2022-11-11T15:32:42;15.10;99.90
19164;DHT22;9714;51.208;4.242;2022-11-11T15:35:33;14.80;99.90
19164;DHT22;9714;51.208;4.242;2022-11-11T15:38:03;14.80;99.90
19164;DHT22;9714;51.208;4.242;2022-11-11T15:40:41;14.60;99.90
19164;DHT22;9714;51.208;4.242;2022-11-11T15:43:13;14.70;99.90
19164;DHT22;9714;51.208;4.242;2022-11-11T15:45:41;14.80;99.90
19164;DHT22;9714;51.208;4.242;2022-11-11T15:48:16;14.90;99.90
19164;DHT22;9714;51.208;4.242;2022-11-11T15:50:44;14.70;99.90
19164;DHT22;9714;51.208;4.242;2022-11-11T15:53:13;14.60;99.90
19164;DHT22;9714;51.208;4.242;2022-11-11T15:55:40;14.60;99.90
19164;DHT22;9714;51.208;4.242;2022-11-11T15:58:09;14.60;99.90
19164;DHT22;9714;51.208;4.242;2022-11-11T16:00:37;14.60;99.90
19164;DHT22;9714;51.208;4.242;2022-11-11T16:03:05;14.40;99.90
19164;DHT22;9714;51.208;4.242;2022-11-11T16:05:37;14.20;99.90
19164;DHT22;9714;51.208;4.242;2022-11-11T16:08:08;14.30;99.90
19164;DHT22;9714;51.208;4.242;2022-11-11T16:10:37;14.20;99.90
19164;DHT22;9714;51.208;4.242;2022-11-11T16:13:12;14.20;99.90
19164;DHT22;9714;51.208;4.242;2022-11-11T16:15:42;14.00;99.90
19164;DHT22;9714;51.208;4.242;2022-11-11T16:18:15;13.90;99.90
19164;DHT22;9714;51.208;4.242;2022-11-11T16:20:47;13.90;99.90
19164;DHT22;9714;51.208;4.242;2022-11-11T16:23:18;13.70;99.90
19164;DHT22;9714;51.208;4.242;2022-11-11T16:25:46;13.50;99.90
19164;DHT22;9714;51.208;4.242;2022-11-11T16:28:14;13.60;99.90
19164;DHT22;9714;51.208;4.242;2022-11-11T16:30:41;13.50;99.90
19164;DHT22;9714;51.208;4.242;2022-11-11T16:33:20;13.60;99.90
19164;DHT22;9714;51.208;4.242;2022-11-11T16:36:06;13.40;99.90
19164;DHT22;9714;51.208;4.242;2022-11-11T16:38:35;13.40;99.90
19164;DHT22;9714;51.208;4.242;2022-11-11T16:41:03;13.30;99.90